sensor_id;sensor_type;location;lat;lon;timestamp;P1;durP1;ratioP1;P2;durP2;ratioP2
20203;SDS011;10261;49.010;12.034;2023-05-07T00:00:23;5.22;;;2.80;;
20203;SDS011;10261;49.010;12.034;2023-05-07T00:01:25;3.75;;;2.70;;
20203;SDS011;10261;49.010;12.034;2023-05-07T00:02:28;2.63;;;2.38;;
20203;SDS011;10261;49.010;12.034;2023-05-07T00:03:31;3.08;;;2.67;;
20203;SDS011;10261;49.010;12.034;2023-05-07T00:04:34;2.80;;;2.50;;
20203;SDS011;10261;49.010;12.034;2023-05-07T00:05:38;2.88;;;2.67;;
20203;SDS011;10261;49.010;12.034;2023-05-07T00:06:42;6.45;;;2.65;;
20203;SDS011;10261;49.010;12.034;2023-05-07T00:07:44;2.47;;;2.28;;
20203;SDS011;10261;49.010;12.034;2023-05-07T00:08:47;3.25;;;2.53;;
20203;SDS011;10261;49.010;12.034;2023-05-07T00:09:49;3.60;;;3.30;;
20203;SDS011;10261;49.010;12.034;2023-05-07T00:10:54;2.92;;;2.72;;
20203;SDS011;10261;49.010;12.034;2023-05-07T00:11:56;2.92;;;2.70;;
20203;SDS011;10261;49.010;12.034;2023-05-07T00:12:59;2.72;;;2.50;;
20203;SDS011;10261;49.010;12.034;2023-05-07T00:14:01;2.58;;;2.38;;
20203;SDS011;10261;49.010;12.034;2023-05-07T00:15:05;2.95;;;2.75;;
20203;SDS011;10261;49.010;12.034;2023-05-07T00:16:08;5.32;;;2.30;;
20203;SDS011;10261;49.010;12.034;2023-05-07T00:17:11;2.60;;;2.40;;
20203;SDS011;10261;49.010;12.034;2023-05-07T00:18:13;2.70;;;2.50;;
20203;SDS011;10261;49.010;12.034;2023-05-07T00:19:16;2.45;;;2.15;;
20203;SDS011;10261;49.010;12.034;2023-05-07T00:20:18;2.95;;;2.75;;
20203;SDS011;10261;49.010;12.034;2023-05-07T00:21:20;2.42;;;2.17;;
20203;SDS011;10261;49.010;12.034;2023-05-07T00:22:22;3.88;;;2.75;;
20203;SDS011;10261;49.010;12.034;2023-05-07T00:23:25;2.80;;;2.22;;
20203;SDS011;10261;49.010;12.034;2023-05-07T00:24:27;2.80;;;2.47;;
20203;SDS011;10261;49.010;12.034;2023-05-07T00:25:30;3.10;;;2.80;;
20203;SDS011;10261;49.010;12.034;2023-05-07T00:26:34;3.38;;;2.80;;
20203;SDS011;10261;49.010;12.034;2023-05-07T00:27:37;4.88;;;2.10;;
20203;SDS011;10261;49.010;12.034;2023-05-07T00:28:39;2.38;;;2.17;;
20203;SDS011;10261;49.010;12.034;2023-05-07T00:29:42;3.33;;;2.50;;
20203;SDS011;10261;49.010;12.034;2023-05-07T00:30:44;2.50;;;2.28;;
20203;SDS011;10261;49.010;12.034;2023-05-07T00:31:46;3.00;;;2.17;;
20203;SDS011;10261;49.010;12.034;2023-05-07T00:32:50;2.25;;;2.05;;
20203;SDS011;10261;49.010;12.034;2023-05-07T00:33:53;2.20;;;2.00;;
20203;SDS011;10261;49.010;12.034;2023-05-07T00:34:55;2.40;;;2.20;;
20203;SDS011;10261;49.010;12.034;2023-05-07T00:35:58;2.45;;;2.25;;
20203;SDS011;10261;49.010;12.034;2023-05-07T00:37:02;2.45;;;2.25;;
20203;SDS011;10261;49.010;12.034;2023-05-07T00:38:07;2.83;;;2.55;;
20203;SDS011;10261;49.010;12.034;2023-05-07T00:39:09;2.53;;;2.30;;
20203;SDS011;10261;49.010;12.034;2023-05-07T00:40:12;2.63;;;2.42;;
20203;SDS011;10261;49.010;12.034;2023-05-07T00:41:14;2.75;;;2.55;;
20203;SDS011;10261;49.010;12.034;2023-05-07T00:42:19;4.25;;;2.00;;
20203;SDS011;10261;49.010;12.034;2023-05-07T00:43:22;2.65;;;2.45;;
20203;SDS011;10261;49.010;12.034;2023-05-07T00:44:24;5.90;;;2.47;;
20203;SDS011;10261;49.010;12.034;2023-05-07T00:45:27;3.85;;;1.83;;
20203;SDS011;10261;49.010;12.034;2023-05-07T00:46:30;8.43;;;2.72;;
20203;SDS011;10261;49.010;12.034;2023-05-07T00:47:33;2.58;;;2.25;;
20203;SDS011;10261;49.010;12.034;2023-05-07T00:48:35;2.88;;;2.30;;
20203;SDS011;10261;49.010;12.034;2023-05-07T00:49:38;2.58;;;2.38;;
20203;SDS011;10261;49.010;12.034;2023-05-07T00:50:43;2.40;;;2.13;;
20203;SDS011;10261;49.010;12.034;2023-05-07T00:51:46;2.80;;;2.60;;
20203;SDS011;10261;49.010;12.034;2023-05-07T00:52:48;3.05;;;2.22;;
20203;SDS011;10261;49.010;12.034;2023-05-07T00:53:52;2.40;;;2.20;;
20203;SDS011;10261;49.010;12.034;2023-05-07T00:54:54;2.47;;;2.28;;
20203;SDS011;10261;49.010;12.034;2023-05-07T00:55:57;3.45;;;2.20;;
20203;SDS011;10261;49.010;12.034;2023-05-07T00:56:59;3.42;;;2.30;;
20203;SDS011;10261;49.010;12.034;2023-05-07T00:58:05;3.08;;;2.20;;
20203;SDS011;10261;49.010;12.034;2023-05-07T00:59:07;2.03;;;1.90;;
20203;SDS011;10261;49.010;12.034;2023-05-07T01:00:11;2.53;;;2.33;;
20203;SDS011;10261;49.010;12.034;2023-05-07T01:01:14;2.97;;;2.60;;
20203;SDS011;10261;49.010;12.034;2023-05-07T01:02:18;2.22;;;2.13;;
20203;SDS011;10261;49.010;12.034;2023-05-07T01:03:20;2.40;;;2.20;;
20203;SDS011;10261;49.010;12.034;2023-05-07T01:04:23;2.90;;;2.58;;
20203;SDS011;10261;49.010;12.034;2023-05-07T01:05:26;2.83;;;2.35;;
20203;SDS011;10261;49.010;12.034;2023-05-07T01:06:32;3.67;;;2.85;;
20203;SDS011;10261;49.010;12.034;2023-05-07T01:07:35;2.90;;;2.70;;
20203;SDS011;10261;49.010;12.034;2023-05-07T01:08:39;3.38;;;2.67;;
20203;SDS011;10261;49.010;12.034;2023-05-07T01:09:42;2.65;;;2.45;;
20203;SDS011;10261;49.010;12.034;2023-05-07T01:10:45;3.47;;;3.17;;
20203;SDS011;10261;49.010;12.034;2023-05-07T01:11:48;2.85;;;2.38;;
20203;SDS011;10261;49.010;12.034;2023-05-07T01:12:52;2.65;;;2.35;;
20203;SDS011;10261;49.010;12.034;2023-05-07T01:13:57;3.28;;;2.40;;
20203;SDS011;10261;49.010;12.034;2023-05-07T01:15:02;3.00;;;2.42;;
20203;SDS011;10261;49.010;12.034;2023-05-07T01:16:06;4.32;;;2.63;;
20203;SDS011;10261;49.010;12.034;2023-05-07T01:17:10;5.22;;;2.47;;
20203;SDS011;10261;49.010;12.034;2023-05-07T01:18:12;3.38;;;3.08;;
20203;SDS011;10261;49.010;12.034;2023-05-07T01:19:16;7.18;;;2.58;;
20203;SDS011;10261;49.010;12.034;2023-05-07T01:20:19;2.78;;;2.45;;
20203;SDS011;10261;49.010;12.034;2023-05-07T01:21:24;5.88;;;3.05;;
20203;SDS011;10261;49.010;12.034;2023-05-07T01:22:30;3.80;;;3.17;;
20203;SDS011;10261;49.010;12.034;2023-05-07T01:23:33;2.95;;;2.70;;
20203;SDS011;10261;49.010;12.034;2023-05-07T01:24:37;2.50;;;2.20;;
20203;SDS011;10261;49.010;12.034;2023-05-07T01:25:40;3.05;;;2.85;;
20203;SDS011;10261;49.010;12.034;2023-05-07T01:26:42;2.30;;;2.10;;
20203;SDS011;10261;49.010;12.034;2023-05-07T01:27:46;3.55;;;3.05;;
20203;SDS011;10261;49.010;12.034;2023-05-07T01:28:48;4.18;;;3.72;;
20203;SDS011;10261;49.010;12.034;2023-05-07T01:29:51;2.50;;;2.30;;
20203;SDS011;10261;49.010;12.034;2023-05-07T01:30:54;2.53;;;2.30;;
20203;SDS011;10261;49.010;12.034;2023-05-07T01:32:00;3.08;;;2.85;;
20203;SDS011;10261;49.010;12.034;2023-05-07T01:33:04;2.67;;;2.33;;
20203;SDS011;10261;49.010;12.034;2023-05-07T01:34:11;3.22;;;2.55;;
20203;SDS011;10261;49.010;12.034;2023-05-07T01:35:16;2.30;;;2.10;;
20203;SDS011;10261;49.010;12.034;2023-05-07T01:36:21;3.13;;;2.50;;
20203;SDS011;10261;49.010;12.034;2023-05-07T01:37:27;3.25;;;2.95;;
20203;SDS011;10261;49.010;12.034;2023-05-07T01:38:32;4.00;;;2.58;;
20203;SDS011;10261;49.010;12.034;2023-05-07T01:39:35;5.45;;;2.95;;
20203;SDS011;10261;49.010;12.034;2023-05-07T01:40:41;4.53;;;3.10;;
20203;SDS011;10261;49.010;12.034;2023-05-07T01:41:44;4.97;;;2.50;;
20203;SDS011;10261;49.010;12.034;2023-05-07T01:42:48;3.05;;;2.45;;
20203;SDS011;10261;49.010;12.034;2023-05-07T01:43:50;3.30;;;2.25;;
20203;SDS011;10261;49.010;12.034;2023-05-07T01:44:55;3.72;;;3.20;;
20203;SDS011;10261;49.010;12.034;2023-05-07T01:45:57;3.13;;;2.83;;
20203;SDS011;10261;49.010;12.034;2023-05-07T01:47:01;7.65;;;3.38;;
20203;SDS011;10261;49.010;12.034;2023-05-07T01:48:04;3.58;;;3.28;;
20203;SDS011;10261;49.010;12.034;2023-05-07T01:49:08;2.78;;;2.58;;
20203;SDS011;10261;49.010;12.034;2023-05-07T01:50:10;3.05;;;2.72;;
20203;SDS011;10261;49.010;12.034;2023-05-07T01:51:14;3.92;;;3.05;;
20203;SDS011;10261;49.010;12.034;2023-05-07T01:52:16;3.75;;;2.75;;
20203;SDS011;10261;49.010;12.034;2023-05-07T01:53:21;2.20;;;2.05;;
20203;SDS011;10261;49.010;12.034;2023-05-07T01:54:25;3.10;;;2.70;;
20203;SDS011;10261;49.010;12.034;2023-05-07T01:55:29;3.38;;;3.05;;
20203;SDS011;10261;49.010;12.034;2023-05-07T01:56:31;4.07;;;3.28;;
20203;SDS011;10261;49.010;12.034;2023-05-07T01:57:34;3.22;;;2.92;;
20203;SDS011;10261;49.010;12.034;2023-05-07T01:58:36;5.10;;;3.28;;
20203;SDS011;10261;49.010;12.034;2023-05-07T01:59:39;3.38;;;3.08;;
20203;SDS011;10261;49.010;12.034;2023-05-07T02:00:41;5.50;;;3.30;;
20203;SDS011;10261;49.010;12.034;2023-05-07T02:01:44;5.40;;;3.30;;
20203;SDS011;10261;49.010;12.034;2023-05-07T02:02:46;3.83;;;3.47;;
20203;SDS011;10261;49.010;12.034;2023-05-07T02:03:49;4.13;;;3.55;;
20203;SDS011;10261;49.010;12.034;2023-05-07T02:04:51;5.38;;;3.17;;
20203;SDS011;10261;49.010;12.034;2023-05-07T02:05:54;3.30;;;2.60;;
20203;SDS011;10261;49.010;12.034;2023-05-07T02:06:56;3.55;;;3.22;;
20203;SDS011;10261;49.010;12.034;2023-05-07T02:07:59;5.35;;;3.25;;
20203;SDS011;10261;49.010;12.034;2023-05-07T02:09:03;4.65;;;3.10;;
20203;SDS011;10261;49.010;12.034;2023-05-07T02:10:06;4.15;;;3.13;;
20203;SDS011;10261;49.010;12.034;2023-05-07T02:11:09;3.10;;;2.80;;
20203;SDS011;10261;49.010;12.034;2023-05-07T02:12:12;4.78;;;2.90;;
20203;SDS011;10261;49.010;12.034;2023-05-07T02:13:14;3.33;;;3.03;;
20203;SDS011;10261;49.010;12.034;2023-05-07T02:14:17;2.78;;;2.53;;
20203;SDS011;10261;49.010;12.034;2023-05-07T02:15:19;3.85;;;2.85;;
20203;SDS011;10261;49.010;12.034;2023-05-07T02:16:22;3.60;;;3.20;;
20203;SDS011;10261;49.010;12.034;2023-05-07T02:17:25;5.25;;;3.08;;
20203;SDS011;10261;49.010;12.034;2023-05-07T02:18:28;4.53;;;3.03;;
20203;SDS011;10261;49.010;12.034;2023-05-07T02:19:30;4.18;;;3.78;;
20203;SDS011;10261;49.010;12.034;2023-05-07T02:20:33;4.22;;;3.35;;
20203;SDS011;10261;49.010;12.034;2023-05-07T02:21:35;4.82;;;3.55;;
20203;SDS011;10261;49.010;12.034;2023-05-07T02:22:38;3.88;;;3.20;;
20203;SDS011;10261;49.010;12.034;2023-05-07T02:23:40;3.90;;;3.47;;
20203;SDS011;10261;49.010;12.034;2023-05-07T02:24:44;5.03;;;3.28;;
20203;SDS011;10261;49.010;12.034;2023-05-07T02:25:46;7.10;;;3.72;;
20203;SDS011;10261;49.010;12.034;2023-05-07T02:26:49;4.25;;;3.20;;
20203;SDS011;10261;49.010;12.034;2023-05-07T02:27:51;3.72;;;3.35;;
20203;SDS011;10261;49.010;12.034;2023-05-07T02:28:54;3.40;;;3.10;;
20203;SDS011;10261;49.010;12.034;2023-05-07T02:29:57;3.13;;;2.85;;
20203;SDS011;10261;49.010;12.034;2023-05-07T02:30:59;3.67;;;3.00;;
20203;SDS011;10261;49.010;12.034;2023-05-07T02:32:02;3.65;;;2.95;;
20203;SDS011;10261;49.010;12.034;2023-05-07T02:33:04;3.13;;;2.80;;
20203;SDS011;10261;49.010;12.034;2023-05-07T02:34:07;4.82;;;3.35;;
20203;SDS011;10261;49.010;12.034;2023-05-07T02:35:09;3.30;;;2.78;;
20203;SDS011;10261;49.010;12.034;2023-05-07T02:36:12;6.57;;;3.00;;
20203;SDS011;10261;49.010;12.034;2023-05-07T02:37:14;3.58;;;3.20;;
20203;SDS011;10261;49.010;12.034;2023-05-07T02:38:17;3.00;;;2.70;;
20203;SDS011;10261;49.010;12.034;2023-05-07T02:39:19;5.15;;;3.55;;
20203;SDS011;10261;49.010;12.034;2023-05-07T02:40:24;3.72;;;2.92;;
20203;SDS011;10261;49.010;12.034;2023-05-07T02:41:26;3.20;;;2.90;;
20203;SDS011;10261;49.010;12.034;2023-05-07T02:42:29;4.00;;;3.60;;
20203;SDS011;10261;49.010;12.034;2023-05-07T02:43:31;4.30;;;3.90;;
20203;SDS011;10261;49.010;12.034;2023-05-07T02:44:34;3.80;;;3.45;;
20203;SDS011;10261;49.010;12.034;2023-05-07T02:45:36;4.10;;;3.33;;
20203;SDS011;10261;49.010;12.034;2023-05-07T02:46:39;3.95;;;3.35;;
20203;SDS011;10261;49.010;12.034;2023-05-07T02:47:41;4.10;;;3.70;;
20203;SDS011;10261;49.010;12.034;2023-05-07T02:48:45;3.97;;;3.67;;
20203;SDS011;10261;49.010;12.034;2023-05-07T02:49:47;5.43;;;3.30;;
20203;SDS011;10261;49.010;12.034;2023-05-07T02:50:50;6.78;;;4.15;;
20203;SDS011;10261;49.010;12.034;2023-05-07T02:51:52;4.30;;;3.50;;
20203;SDS011;10261;49.010;12.034;2023-05-07T02:52:55;5.57;;;3.85;;
20203;SDS011;10261;49.010;12.034;2023-05-07T02:53:56;4.43;;;4.03;;
20203;SDS011;10261;49.010;12.034;2023-05-07T02:54:59;6.68;;;3.58;;
20203;SDS011;10261;49.010;12.034;2023-05-07T02:56:03;5.35;;;3.65;;
20203;SDS011;10261;49.010;12.034;2023-05-07T02:57:07;4.50;;;4.10;;
20203;SDS011;10261;49.010;12.034;2023-05-07T02:58:09;4.32;;;3.67;;
20203;SDS011;10261;49.010;12.034;2023-05-07T02:59:12;3.65;;;3.35;;
20203;SDS011;10261;49.010;12.034;2023-05-07T03:00:14;4.30;;;3.90;;
20203;SDS011;10261;49.010;12.034;2023-05-07T03:01:19;5.28;;;4.63;;
20203;SDS011;10261;49.010;12.034;2023-05-07T03:02:22;6.25;;;3.80;;
20203;SDS011;10261;49.010;12.034;2023-05-07T03:03:25;7.10;;;4.38;;
20203;SDS011;10261;49.010;12.034;2023-05-07T03:04:27;4.68;;;3.38;;
20203;SDS011;10261;49.010;12.034;2023-05-07T03:05:30;4.40;;;4.00;;
20203;SDS011;10261;49.010;12.034;2023-05-07T03:06:32;3.80;;;3.50;;
20203;SDS011;10261;49.010;12.034;2023-05-07T03:07:35;4.82;;;4.32;;
20203;SDS011;10261;49.010;12.034;2023-05-07T03:08:37;3.45;;;3.25;;
20203;SDS011;10261;49.010;12.034;2023-05-07T03:09:39;5.00;;;3.22;;
20203;SDS011;10261;49.010;12.034;2023-05-07T03:10:41;4.22;;;3.72;;
20203;SDS011;10261;49.010;12.034;2023-05-07T03:11:46;4.47;;;4.07;;
20203;SDS011;10261;49.010;12.034;2023-05-07T03:12:48;5.55;;;4.05;;
20203;SDS011;10261;49.010;12.034;2023-05-07T03:13:51;6.22;;;4.57;;
20203;SDS011;10261;49.010;12.034;2023-05-07T03:14:53;4.38;;;3.97;;
20203;SDS011;10261;49.010;12.034;2023-05-07T03:15:56;4.90;;;4.50;;
20203;SDS011;10261;49.010;12.034;2023-05-07T03:16:58;7.43;;;4.30;;
20203;SDS011;10261;49.010;12.034;2023-05-07T03:18:01;5.13;;;4.18;;
20203;SDS011;10261;49.010;12.034;2023-05-07T03:19:03;5.82;;;3.78;;
20203;SDS011;10261;49.010;12.034;2023-05-07T03:20:07;4.78;;;4.30;;
20203;SDS011;10261;49.010;12.034;2023-05-07T03:21:11;4.72;;;3.85;;
20203;SDS011;10261;49.010;12.034;2023-05-07T03:22:14;5.68;;;4.30;;
20203;SDS011;10261;49.010;12.034;2023-05-07T03:23:16;5.95;;;5.10;;
20203;SDS011;10261;49.010;12.034;2023-05-07T03:24:19;5.63;;;3.53;;
20203;SDS011;10261;49.010;12.034;2023-05-07T03:25:21;4.95;;;4.45;;
20203;SDS011;10261;49.010;12.034;2023-05-07T03:26:24;4.18;;;3.80;;
20203;SDS011;10261;49.010;12.034;2023-05-07T03:27:27;7.30;;;3.80;;
20203;SDS011;10261;49.010;12.034;2023-05-07T03:28:30;4.45;;;3.80;;
20203;SDS011;10261;49.010;12.034;2023-05-07T03:29:32;4.43;;;4.03;;
20203;SDS011;10261;49.010;12.034;2023-05-07T03:30:35;4.70;;;3.85;;
20203;SDS011;10261;49.010;12.034;2023-05-07T03:31:37;7.32;;;4.13;;
20203;SDS011;10261;49.010;12.034;2023-05-07T03:32:40;4.32;;;3.97;;
20203;SDS011;10261;49.010;12.034;2023-05-07T03:33:49;3.90;;;3.60;;
20203;SDS011;10261;49.010;12.034;2023-05-07T03:34:53;5.43;;;3.92;;
20203;SDS011;10261;49.010;12.034;2023-05-07T03:35:55;4.40;;;4.00;;
20203;SDS011;10261;49.010;12.034;2023-05-07T03:36:58;6.00;;;4.85;;
20203;SDS011;10261;49.010;12.034;2023-05-07T03:38:01;6.53;;;4.50;;
20203;SDS011;10261;49.010;12.034;2023-05-07T03:39:03;4.38;;;3.97;;
20203;SDS011;10261;49.010;12.034;2023-05-07T03:40:06;4.68;;;4.18;;
20203;SDS011;10261;49.010;12.034;2023-05-07T03:41:09;6.18;;;5.53;;
20203;SDS011;10261;49.010;12.034;2023-05-07T03:42:12;5.20;;;4.40;;
20203;SDS011;10261;49.010;12.034;2023-05-07T03:43:16;5.13;;;4.25;;
20203;SDS011;10261;49.010;12.034;2023-05-07T03:44:19;6.10;;;4.22;;
20203;SDS011;10261;49.010;12.034;2023-05-07T03:45:21;4.32;;;3.92;;
20203;SDS011;10261;49.010;12.034;2023-05-07T03:46:24;5.40;;;3.97;;
20203;SDS011;10261;49.010;12.034;2023-05-07T03:47:27;4.57;;;4.18;;
20203;SDS011;10261;49.010;12.034;2023-05-07T03:48:30;6.13;;;4.22;;
20203;SDS011;10261;49.010;12.034;2023-05-07T03:49:32;4.70;;;4.10;;
20203;SDS011;10261;49.010;12.034;2023-05-07T03:50:35;7.80;;;4.40;;
20203;SDS011;10261;49.010;12.034;2023-05-07T03:51:39;4.32;;;3.92;;
20203;SDS011;10261;49.010;12.034;2023-05-07T03:52:42;6.15;;;4.05;;
20203;SDS011;10261;49.010;12.034;2023-05-07T03:53:44;4.40;;;3.55;;
20203;SDS011;10261;49.010;12.034;2023-05-07T03:54:47;4.10;;;3.80;;
20203;SDS011;10261;49.010;12.034;2023-05-07T03:55:49;4.93;;;4.15;;
20203;SDS011;10261;49.010;12.034;2023-05-07T03:56:52;5.85;;;3.85;;
20203;SDS011;10261;49.010;12.034;2023-05-07T03:57:54;4.63;;;4.13;;
20203;SDS011;10261;49.010;12.034;2023-05-07T03:58:59;4.45;;;4.05;;
20203;SDS011;10261;49.010;12.034;2023-05-07T04:00:01;4.68;;;4.28;;
20203;SDS011;10261;49.010;12.034;2023-05-07T04:01:06;4.72;;;3.83;;
20203;SDS011;10261;49.010;12.034;2023-05-07T04:02:08;4.70;;;4.25;;
20203;SDS011;10261;49.010;12.034;2023-05-07T04:03:11;4.65;;;4.22;;
20203;SDS011;10261;49.010;12.034;2023-05-07T04:04:14;6.03;;;4.10;;
20203;SDS011;10261;49.010;12.034;2023-05-07T04:05:17;4.15;;;3.85;;
20203;SDS011;10261;49.010;12.034;2023-05-07T04:06:19;4.07;;;3.70;;
20203;SDS011;10261;49.010;12.034;2023-05-07T04:07:22;5.93;;;3.65;;
20203;SDS011;10261;49.010;12.034;2023-05-07T04:08:24;4.93;;;3.80;;
20203;SDS011;10261;49.010;12.034;2023-05-07T04:09:27;4.60;;;4.10;;
20203;SDS011;10261;49.010;12.034;2023-05-07T04:10:31;4.57;;;4.15;;
20203;SDS011;10261;49.010;12.034;2023-05-07T04:11:35;5.30;;;3.70;;
20203;SDS011;10261;49.010;12.034;2023-05-07T04:12:37;4.22;;;3.92;;
20203;SDS011;10261;49.010;12.034;2023-05-07T04:13:40;4.35;;;3.90;;
20203;SDS011;10261;49.010;12.034;2023-05-07T04:14:43;4.88;;;3.97;;
20203;SDS011;10261;49.010;12.034;2023-05-07T04:15:47;3.90;;;3.60;;
20203;SDS011;10261;49.010;12.034;2023-05-07T04:16:50;5.55;;;3.70;;
20203;SDS011;10261;49.010;12.034;2023-05-07T04:17:53;4.03;;;3.55;;
20203;SDS011;10261;49.010;12.034;2023-05-07T04:18:55;3.47;;;3.17;;
20203;SDS011;10261;49.010;12.034;2023-05-07T04:19:58;5.13;;;3.55;;
20203;SDS011;10261;49.010;12.034;2023-05-07T04:21:00;3.92;;;3.53;;
20203;SDS011;10261;49.010;12.034;2023-05-07T04:22:03;7.90;;;3.95;;
20203;SDS011;10261;49.010;12.034;2023-05-07T04:23:05;4.35;;;3.95;;
20203;SDS011;10261;49.010;12.034;2023-05-07T04:24:08;6.82;;;3.50;;
20203;SDS011;10261;49.010;12.034;2023-05-07T04:25:10;6.82;;;4.43;;
20203;SDS011;10261;49.010;12.034;2023-05-07T04:26:13;6.30;;;3.78;;
20203;SDS011;10261;49.010;12.034;2023-05-07T04:27:15;4.20;;;3.80;;
20203;SDS011;10261;49.010;12.034;2023-05-07T04:28:18;3.83;;;3.50;;
20203;SDS011;10261;49.010;12.034;2023-05-07T04:29:20;5.43;;;3.35;;
20203;SDS011;10261;49.010;12.034;2023-05-07T04:30:25;9.30;;;3.83;;
20203;SDS011;10261;49.010;12.034;2023-05-07T04:31:27;4.07;;;3.67;;
20203;SDS011;10261;49.010;12.034;2023-05-07T04:32:30;4.32;;;3.95;;
20203;SDS011;10261;49.010;12.034;2023-05-07T04:33:33;5.32;;;3.88;;
20203;SDS011;10261;49.010;12.034;2023-05-07T04:34:36;3.78;;;3.38;;
20203;SDS011;10261;49.010;12.034;2023-05-07T04:35:38;4.32;;;3.40;;
20203;SDS011;10261;49.010;12.034;2023-05-07T04:36:41;4.20;;;3.45;;
20203;SDS011;10261;49.010;12.034;2023-05-07T04:37:44;5.18;;;3.80;;
20203;SDS011;10261;49.010;12.034;2023-05-07T04:38:47;11.35;;;4.72;;
20203;SDS011;10261;49.010;12.034;2023-05-07T04:39:49;4.47;;;3.63;;
20203;SDS011;10261;49.010;12.034;2023-05-07T04:40:52;4.95;;;4.50;;
20203;SDS011;10261;49.010;12.034;2023-05-07T04:41:54;4.00;;;3.60;;
20203;SDS011;10261;49.010;12.034;2023-05-07T04:42:57;5.00;;;4.10;;
20203;SDS011;10261;49.010;12.034;2023-05-07T04:43:59;4.30;;;3.90;;
20203;SDS011;10261;49.010;12.034;2023-05-07T04:45:03;5.40;;;5.00;;
20203;SDS011;10261;49.010;12.034;2023-05-07T04:46:07;5.35;;;4.85;;
20203;SDS011;10261;49.010;12.034;2023-05-07T04:47:10;6.10;;;5.32;;
20203;SDS011;10261;49.010;12.034;2023-05-07T04:48:12;8.75;;;4.78;;
20203;SDS011;10261;49.010;12.034;2023-05-07T04:49:17;5.38;;;4.88;;
20203;SDS011;10261;49.010;12.034;2023-05-07T04:50:20;4.43;;;4.03;;
20203;SDS011;10261;49.010;12.034;2023-05-07T04:51:24;5.20;;;4.53;;
20203;SDS011;10261;49.010;12.034;2023-05-07T04:52:27;5.45;;;4.95;;
20203;SDS011;10261;49.010;12.034;2023-05-07T04:53:29;6.93;;;5.70;;
20203;SDS011;10261;49.010;12.034;2023-05-07T04:54:32;5.10;;;4.28;;
20203;SDS011;10261;49.010;12.034;2023-05-07T04:55:34;6.57;;;4.88;;
20203;SDS011;10261;49.010;12.034;2023-05-07T04:56:37;6.75;;;4.75;;
20203;SDS011;10261;49.010;12.034;2023-05-07T04:57:39;6.05;;;5.38;;
20203;SDS011;10261;49.010;12.034;2023-05-07T04:58:42;5.50;;;5.00;;
20203;SDS011;10261;49.010;12.034;2023-05-07T04:59:44;7.18;;;4.40;;
20203;SDS011;10261;49.010;12.034;2023-05-07T05:00:47;5.35;;;4.85;;
20203;SDS011;10261;49.010;12.034;2023-05-07T05:01:51;4.82;;;4.43;;
20203;SDS011;10261;49.010;12.034;2023-05-07T05:02:54;5.20;;;4.70;;
20203;SDS011;10261;49.010;12.034;2023-05-07T05:03:56;5.68;;;5.15;;
20203;SDS011;10261;49.010;12.034;2023-05-07T05:05:01;4.68;;;4.28;;
20203;SDS011;10261;49.010;12.034;2023-05-07T05:06:03;5.43;;;4.93;;
20203;SDS011;10261;49.010;12.034;2023-05-07T05:07:07;6.38;;;5.22;;
20203;SDS011;10261;49.010;12.034;2023-05-07T05:08:09;5.45;;;5.05;;
20203;SDS011;10261;49.010;12.034;2023-05-07T05:09:12;4.90;;;4.50;;
20203;SDS011;10261;49.010;12.034;2023-05-07T05:10:14;5.95;;;5.35;;
20203;SDS011;10261;49.010;12.034;2023-05-07T05:11:17;5.82;;;5.22;;
20203;SDS011;10261;49.010;12.034;2023-05-07T05:12:20;8.48;;;5.80;;
20203;SDS011;10261;49.010;12.034;2023-05-07T05:13:22;6.95;;;5.40;;
20203;SDS011;10261;49.010;12.034;2023-05-07T05:14:25;7.88;;;6.55;;
20203;SDS011;10261;49.010;12.034;2023-05-07T05:15:27;6.25;;;5.15;;
20203;SDS011;10261;49.010;12.034;2023-05-07T05:16:34;7.55;;;5.93;;
20203;SDS011;10261;49.010;12.034;2023-05-07T05:17:37;5.55;;;4.65;;
20203;SDS011;10261;49.010;12.034;2023-05-07T05:18:40;6.15;;;5.15;;
20203;SDS011;10261;49.010;12.034;2023-05-07T05:19:42;7.13;;;5.35;;
20203;SDS011;10261;49.010;12.034;2023-05-07T05:20:45;7.18;;;6.40;;
20203;SDS011;10261;49.010;12.034;2023-05-07T05:21:47;5.55;;;5.05;;
20203;SDS011;10261;49.010;12.034;2023-05-07T05:22:50;9.90;;;5.45;;
20203;SDS011;10261;49.010;12.034;2023-05-07T05:23:52;5.78;;;5.28;;
20203;SDS011;10261;49.010;12.034;2023-05-07T05:24:55;5.90;;;5.40;;
20203;SDS011;10261;49.010;12.034;2023-05-07T05:25:57;7.72;;;5.85;;
20203;SDS011;10261;49.010;12.034;2023-05-07T05:27:00;6.97;;;6.28;;
20203;SDS011;10261;49.010;12.034;2023-05-07T05:28:03;5.60;;;5.10;;
20203;SDS011;10261;49.010;12.034;2023-05-07T05:29:06;6.00;;;5.40;;
20203;SDS011;10261;49.010;12.034;2023-05-07T05:30:09;7.00;;;6.30;;
20203;SDS011;10261;49.010;12.034;2023-05-07T05:31:13;7.03;;;6.32;;
20203;SDS011;10261;49.010;12.034;2023-05-07T05:32:15;6.32;;;5.70;;
20203;SDS011;10261;49.010;12.034;2023-05-07T05:33:19;6.70;;;5.95;;
20203;SDS011;10261;49.010;12.034;2023-05-07T05:34:22;6.57;;;5.97;;
20203;SDS011;10261;49.010;12.034;2023-05-07T05:35:24;7.43;;;6.72;;
20203;SDS011;10261;49.010;12.034;2023-05-07T05:36:27;7.57;;;6.45;;
20203;SDS011;10261;49.010;12.034;2023-05-07T05:37:31;7.38;;;6.50;;
20203;SDS011;10261;49.010;12.034;2023-05-07T05:38:33;9.93;;;6.10;;
20203;SDS011;10261;49.010;12.034;2023-05-07T05:39:36;6.35;;;5.75;;
20203;SDS011;10261;49.010;12.034;2023-05-07T05:40:39;10.75;;;7.03;;
20203;SDS011;10261;49.010;12.034;2023-05-07T05:41:41;7.20;;;6.50;;
20203;SDS011;10261;49.010;12.034;2023-05-07T05:42:44;7.68;;;6.47;;
20203;SDS011;10261;49.010;12.034;2023-05-07T05:43:48;7.20;;;6.13;;
20203;SDS011;10261;49.010;12.034;2023-05-07T05:44:51;10.77;;;7.32;;
20203;SDS011;10261;49.010;12.034;2023-05-07T05:45:53;7.05;;;6.10;;
20203;SDS011;10261;49.010;12.034;2023-05-07T05:46:57;7.40;;;6.70;;
20203;SDS011;10261;49.010;12.034;2023-05-07T05:48:00;8.20;;;6.95;;
20203;SDS011;10261;49.010;12.034;2023-05-07T05:49:04;7.70;;;6.88;;
20203;SDS011;10261;49.010;12.034;2023-05-07T05:50:07;6.47;;;5.85;;
20203;SDS011;10261;49.010;12.034;2023-05-07T05:51:10;7.30;;;6.57;;
20203;SDS011;10261;49.010;12.034;2023-05-07T05:52:12;7.25;;;6.43;;
20203;SDS011;10261;49.010;12.034;2023-05-07T05:53:15;9.90;;;6.30;;
20203;SDS011;10261;49.010;12.034;2023-05-07T05:54:17;8.25;;;7.03;;
20203;SDS011;10261;49.010;12.034;2023-05-07T05:55:20;8.38;;;7.47;;
20203;SDS011;10261;49.010;12.034;2023-05-07T05:56:23;7.35;;;6.75;;
20203;SDS011;10261;49.010;12.034;2023-05-07T05:57:26;12.35;;;7.47;;
20203;SDS011;10261;49.010;12.034;2023-05-07T05:58:29;7.32;;;6.60;;
20203;SDS011;10261;49.010;12.034;2023-05-07T05:59:32;8.57;;;7.60;;
20203;SDS011;10261;49.010;12.034;2023-05-07T06:00:34;8.25;;;6.82;;
20203;SDS011;10261;49.010;12.034;2023-05-07T06:01:37;9.50;;;7.50;;
20203;SDS011;10261;49.010;12.034;2023-05-07T06:02:39;7.80;;;7.10;;
20203;SDS011;10261;49.010;12.034;2023-05-07T06:03:44;8.60;;;7.28;;
20203;SDS011;10261;49.010;12.034;2023-05-07T06:04:47;7.82;;;6.60;;
20203;SDS011;10261;49.010;12.034;2023-05-07T06:05:50;10.23;;;7.45;;
20203;SDS011;10261;49.010;12.034;2023-05-07T06:06:52;7.95;;;7.03;;
20203;SDS011;10261;49.010;12.034;2023-05-07T06:07:55;7.75;;;6.95;;
20203;SDS011;10261;49.010;12.034;2023-05-07T06:08:57;8.93;;;7.07;;
20203;SDS011;10261;49.010;12.034;2023-05-07T06:10:00;9.38;;;6.80;;
20203;SDS011;10261;49.010;12.034;2023-05-07T06:11:02;8.02;;;6.63;;
20203;SDS011;10261;49.010;12.034;2023-05-07T06:12:05;8.00;;;7.22;;
20203;SDS011;10261;49.010;12.034;2023-05-07T06:13:07;9.13;;;7.50;;